sensor_id;sensor_type;location;lat;lon;timestamp;P1;durP1;ratioP1;P2;durP2;ratioP2
58697;SDS011;44475;53.206;-6.106;2023-04-06T00:01:44;3.08;;;1.50;;
58697;SDS011;44475;53.206;-6.106;2023-04-06T00:04:12;2.28;;;1.50;;
58697;SDS011;44475;53.206;-6.106;2023-04-06T00:06:38;2.40;;;1.55;;
58697;SDS011;44475;53.206;-6.106;2023-04-06T00:09:04;2.63;;;1.58;;
58697;SDS011;44475;53.206;-6.106;2023-04-06T00:11:30;1.88;;;1.50;;
58697;SDS011;44475;53.206;-6.106;2023-04-06T00:13:56;2.00;;;1.42;;
58697;SDS011;44475;53.206;-6.106;2023-04-06T00:16:23;2.45;;;1.50;;
58697;SDS011;44475;53.206;-6.106;2023-04-06T00:18:49;1.75;;;1.50;;
58697;SDS011;44475;53.206;-6.106;2023-04-06T00:21:15;2.47;;;1.50;;
58697;SDS011;44475;53.206;-6.106;2023-04-06T00:23:41;2.88;;;1.63;;
58697;SDS011;44475;53.206;-6.106;2023-04-06T00:26:08;2.00;;;1.40;;
58697;SDS011;44475;53.206;-6.106;2023-04-06T00:28:36;2.72;;;1.55;;
58697;SDS011;44475;53.206;-6.106;2023-04-06T00:31:02;1.85;;;1.40;;
58697;SDS011;44475;53.206;-6.106;2023-04-06T00:33:29;2.55;;;1.55;;
58697;SDS011;44475;53.206;-6.106;2023-04-06T00:35:55;2.55;;;1.52;;
58697;SDS011;44475;53.206;-6.106;2023-04-06T00:38:21;2.30;;;1.50;;
58697;SDS011;44475;53.206;-6.106;2023-04-06T00:40:48;1.95;;;1.33;;
58697;SDS011;44475;53.206;-6.106;2023-04-06T00:43:14;2.45;;;1.48;;
58697;SDS011;44475;53.206;-6.106;2023-04-06T00:45:41;2.55;;;1.50;;
58697;SDS011;44475;53.206;-6.106;2023-04-06T00:48:08;3.13;;;1.60;;
58697;SDS011;44475;53.206;-6.106;2023-04-06T00:50:34;2.00;;;1.40;;
58697;SDS011;44475;53.206;-6.106;2023-04-06T00:53:01;2.88;;;1.50;;
58697;SDS011;44475;53.206;-6.106;2023-04-06T00:55:28;2.03;;;1.55;;
58697;SDS011;44475;53.206;-6.106;2023-04-06T00:57:56;2.05;;;1.50;;
58697;SDS011;44475;53.206;-6.106;2023-04-06T01:00:24;1.95;;;1.48;;
58697;SDS011;44475;53.206;-6.106;2023-04-06T01:02:55;2.15;;;1.40;;
58697;SDS011;44475;53.206;-6.106;2023-04-06T01:05:29;3.28;;;1.50;;
58697;SDS011;44475;53.206;-6.106;2023-04-06T01:07:57;2.42;;;1.65;;
58697;SDS011;44475;53.206;-6.106;2023-04-06T01:10:28;2.10;;;1.40;;
58697;SDS011;44475;53.206;-6.106;2023-04-06T01:13:20;2.08;;;1.55;;
58697;SDS011;44475;53.206;-6.106;2023-04-06T01:15:56;2.58;;;1.55;;
58697;SDS011;44475;53.206;-6.106;2023-04-06T01:18:51;1.73;;;1.40;;
58697;SDS011;44475;53.206;-6.106;2023-04-06T01:21:22;1.98;;;1.50;;
58697;SDS011;44475;53.206;-6.106;2023-04-06T01:24:03;2.40;;;1.42;;
58697;SDS011;44475;53.206;-6.106;2023-04-06T01:26:40;2.65;;;1.42;;
58697;SDS011;44475;53.206;-6.106;2023-04-06T01:29:08;2.28;;;1.48;;
58697;SDS011;44475;53.206;-6.106;2023-04-06T01:31:35;2.42;;;1.50;;
58697;SDS011;44475;53.206;-6.106;2023-04-06T01:34:01;1.90;;;1.33;;
58697;SDS011;44475;53.206;-6.106;2023-04-06T01:36:27;2.20;;;1.40;;
58697;SDS011;44475;53.206;-6.106;2023-04-06T01:39:03;2.35;;;1.40;;
58697;SDS011;44475;53.206;-6.106;2023-04-06T01:41:34;2.28;;;1.40;;
58697;SDS011;44475;53.206;-6.106;2023-04-06T01:44:01;2.22;;;1.58;;
58697;SDS011;44475;53.206;-6.106;2023-04-06T01:46:29;2.70;;;1.50;;
58697;SDS011;44475;53.206;-6.106;2023-04-06T01:48:55;2.42;;;1.50;;
58697;SDS011;44475;53.206;-6.106;2023-04-06T01:51:36;2.38;;;1.50;;
58697;SDS011;44475;53.206;-6.106;2023-04-06T01:54:05;3.03;;;1.40;;
58697;SDS011;44475;53.206;-6.106;2023-04-06T01:56:51;1.70;;;1.30;;
58697;SDS011;44475;53.206;-6.106;2023-04-06T01:59:26;2.65;;;1.45;;
58697;SDS011;44475;53.206;-6.106;2023-04-06T02:01:53;2.70;;;1.50;;
58697;SDS011;44475;53.206;-6.106;2023-04-06T02:04:19;1.98;;;1.40;;
58697;SDS011;44475;53.206;-6.106;2023-04-06T02:06:49;1.65;;;1.30;;
58697;SDS011;44475;53.206;-6.106;2023-04-06T02:09:19;1.80;;;1.40;;
58697;SDS011;44475;53.206;-6.106;2023-04-06T02:11:46;2.78;;;1.45;;
58697;SDS011;44475;53.206;-6.106;2023-04-06T02:14:12;2.40;;;1.45;;
58697;SDS011;44475;53.206;-6.106;2023-04-06T02:16:43;3.50;;;1.40;;
58697;SDS011;44475;53.206;-6.106;2023-04-06T02:19:10;2.83;;;1.45;;
58697;SDS011;44475;53.206;-6.106;2023-04-06T02:21:36;2.28;;;1.40;;
58697;SDS011;44475;53.206;-6.106;2023-04-06T02:24:02;1.83;;;1.40;;
58697;SDS011;44475;53.206;-6.106;2023-04-06T02:26:28;1.88;;;1.40;;
58697;SDS011;44475;53.206;-6.106;2023-04-06T02:28:55;2.45;;;1.55;;
58697;SDS011;44475;53.206;-6.106;2023-04-06T02:31:21;3.10;;;1.50;;
58697;SDS011;44475;53.206;-6.106;2023-04-06T02:33:48;3.15;;;1.48;;
58697;SDS011;44475;53.206;-6.106;2023-04-06T02:36:15;1.40;;;1.30;;
58697;SDS011;44475;53.206;-6.106;2023-04-06T02:38:41;3.05;;;1.60;;
58697;SDS011;44475;53.206;-6.106;2023-04-06T02:41:09;2.67;;;1.48;;
58697;SDS011;44475;53.206;-6.106;2023-04-06T02:43:36;2.70;;;1.70;;
58697;SDS011;44475;53.206;-6.106;2023-04-06T02:46:08;2.53;;;1.63;;
58697;SDS011;44475;53.206;-6.106;2023-04-06T02:48:37;2.70;;;1.40;;
58697;SDS011;44475;53.206;-6.106;2023-04-06T02:51:04;2.40;;;1.50;;
58697;SDS011;44475;53.206;-6.106;2023-04-06T02:53:30;2.78;;;1.60;;
58697;SDS011;44475;53.206;-6.106;2023-04-06T02:55:56;3.78;;;1.50;;
58697;SDS011;44475;53.206;-6.106;2023-04-06T02:58:29;2.95;;;1.60;;
58697;SDS011;44475;53.206;-6.106;2023-04-06T03:00:56;2.40;;;1.60;;
58697;SDS011;44475;53.206;-6.106;2023-04-06T03:03:23;2.95;;;1.70;;
58697;SDS011;44475;53.206;-6.106;2023-04-06T03:05:49;3.22;;;1.70;;
58697;SDS011;44475;53.206;-6.106;2023-04-06T03:08:23;2.80;;;1.60;;
58697;SDS011;44475;53.206;-6.106;2023-04-06T03:10:49;2.38;;;1.70;;
58697;SDS011;44475;53.206;-6.106;2023-04-06T03:13:17;2.65;;;1.70;;
58697;SDS011;44475;53.206;-6.106;2023-04-06T03:15:47;2.22;;;1.60;;
58697;SDS011;44475;53.206;-6.106;2023-04-06T03:18:20;3.92;;;1.90;;
58697;SDS011;44475;53.206;-6.106;2023-04-06T03:20:49;2.10;;;1.60;;
58697;SDS011;44475;53.206;-6.106;2023-04-06T03:23:18;2.97;;;1.70;;
58697;SDS011;44475;53.206;-6.106;2023-04-06T03:25:46;3.30;;;1.95;;
58697;SDS011;44475;53.206;-6.106;2023-04-06T03:28:16;3.45;;;1.70;;
58697;SDS011;44475;53.206;-6.106;2023-04-06T03:30:52;1.73;;;1.55;;
58697;SDS011;44475;53.206;-6.106;2023-04-06T03:33:34;2.70;;;1.70;;
58697;SDS011;44475;53.206;-6.106;2023-04-06T03:36:00;2.40;;;1.60;;
58697;SDS011;44475;53.206;-6.106;2023-04-06T03:38:27;3.30;;;1.75;;
58697;SDS011;44475;53.206;-6.106;2023-04-06T03:40:54;2.92;;;1.70;;
58697;SDS011;44475;53.206;-6.106;2023-04-06T03:43:24;3.60;;;1.90;;
58697;SDS011;44475;53.206;-6.106;2023-04-06T03:45:50;4.30;;;1.85;;
58697;SDS011;44475;53.206;-6.106;2023-04-06T03:48:16;3.63;;;1.83;;
58697;SDS011;44475;53.206;-6.106;2023-04-06T03:50:42;3.58;;;1.73;;
58697;SDS011;44475;53.206;-6.106;2023-04-06T03:53:09;2.42;;;1.75;;
58697;SDS011;44475;53.206;-6.106;2023-04-06T03:55:36;3.05;;;1.80;;
58697;SDS011;44475;53.206;-6.106;2023-04-06T03:58:02;2.55;;;1.70;;
58697;SDS011;44475;53.206;-6.106;2023-04-06T04:00:28;2.25;;;1.60;;
58697;SDS011;44475;53.206;-6.106;2023-04-06T04:02:55;3.53;;;1.70;;
58697;SDS011;44475;53.206;-6.106;2023-04-06T04:05:21;2.58;;;1.65;;
58697;SDS011;44475;53.206;-6.106;2023-04-06T04:07:51;3.05;;;1.80;;
58697;SDS011;44475;53.206;-6.106;2023-04-06T04:10:19;2.88;;;1.70;;
58697;SDS011;44475;53.206;-6.106;2023-04-06T04:12:46;4.05;;;1.70;;
58697;SDS011;44475;53.206;-6.106;2023-04-06T04:15:12;2.50;;;1.75;;
58697;SDS011;44475;53.206;-6.106;2023-04-06T04:17:38;2.92;;;1.70;;
58697;SDS011;44475;53.206;-6.106;2023-04-06T04:20:05;2.47;;;1.80;;
58697;SDS011;44475;53.206;-6.106;2023-04-06T04:22:31;3.15;;;1.80;;
58697;SDS011;44475;53.206;-6.106;2023-04-06T04:24:58;2.63;;;1.60;;
58697;SDS011;44475;53.206;-6.106;2023-04-06T04:27:26;3.28;;;1.65;;
58697;SDS011;44475;53.206;-6.106;2023-04-06T04:29:52;2.30;;;1.60;;
58697;SDS011;44475;53.206;-6.106;2023-04-06T04:32:18;5.20;;;1.90;;
58697;SDS011;44475;53.206;-6.106;2023-04-06T04:34:45;2.20;;;1.52;;
58697;SDS011;44475;53.206;-6.106;2023-04-06T04:37:21;2.20;;;1.58;;
58697;SDS011;44475;53.206;-6.106;2023-04-06T04:39:53;3.45;;;1.90;;
58697;SDS011;44475;53.206;-6.106;2023-04-06T04:42:20;2.42;;;1.60;;
58697;SDS011;44475;53.206;-6.106;2023-04-06T04:44:50;3.75;;;1.80;;
58697;SDS011;44475;53.206;-6.106;2023-04-06T04:47:26;3.13;;;1.90;;
58697;SDS011;44475;53.206;-6.106;2023-04-06T04:49:52;2.38;;;1.60;;
58697;SDS011;44475;53.206;-6.106;2023-04-06T04:52:21;3.13;;;1.70;;
58697;SDS011;44475;53.206;-6.106;2023-04-06T04:54:56;3.53;;;1.70;;
58697;SDS011;44475;53.206;-6.106;2023-04-06T04:57:26;2.67;;;1.60;;
58697;SDS011;44475;53.206;-6.106;2023-04-06T04:59:52;2.25;;;1.60;;
58697;SDS011;44475;53.206;-6.106;2023-04-06T05:02:18;2.63;;;1.80;;
58697;SDS011;44475;53.206;-6.106;2023-04-06T05:05:07;3.25;;;1.70;;
58697;SDS011;44475;53.206;-6.106;2023-04-06T05:07:34;3.63;;;1.67;;
58697;SDS011;44475;53.206;-6.106;2023-04-06T05:10:01;4.07;;;1.80;;
58697;SDS011;44475;53.206;-6.106;2023-04-06T05:12:34;2.60;;;1.60;;
58697;SDS011;44475;53.206;-6.106;2023-04-06T05:15:06;2.55;;;1.50;;
58697;SDS011;44475;53.206;-6.106;2023-04-06T05:17:33;2.63;;;1.60;;
58697;SDS011;44475;53.206;-6.106;2023-04-06T05:19:59;2.20;;;1.65;;
58697;SDS011;44475;53.206;-6.106;2023-04-06T05:22:28;2.15;;;1.55;;
58697;SDS011;44475;53.206;-6.106;2023-04-06T05:25:09;2.25;;;1.50;;
58697;SDS011;44475;53.206;-6.106;2023-04-06T05:27:37;2.38;;;1.60;;
58697;SDS011;44475;53.206;-6.106;2023-04-06T05:30:08;2.50;;;1.52;;
58697;SDS011;44475;53.206;-6.106;2023-04-06T05:32:40;2.97;;;1.60;;
58697;SDS011;44475;53.206;-6.106;2023-04-06T05:35:08;2.70;;;1.73;;
58697;SDS011;44475;53.206;-6.106;2023-04-06T05:37:35;2.15;;;1.60;;
58697;SDS011;44475;53.206;-6.106;2023-04-06T05:40:01;2.65;;;1.60;;
58697;SDS011;44475;53.206;-6.106;2023-04-06T05:42:36;2.38;;;1.50;;
58697;SDS011;44475;53.206;-6.106;2023-04-06T05:45:04;2.50;;;1.60;;
58697;SDS011;44475;53.206;-6.106;2023-04-06T05:47:31;3.00;;;1.80;;
58697;SDS011;44475;53.206;-6.106;2023-04-06T05:50:06;2.30;;;1.40;;
58697;SDS011;44475;53.206;-6.106;2023-04-06T05:52:36;2.42;;;1.40;;
58697;SDS011;44475;53.206;-6.106;2023-04-06T05:55:02;2.65;;;1.52;;
58697;SDS011;44475;53.206;-6.106;2023-04-06T05:57:30;2.95;;;1.55;;
58697;SDS011;44475;53.206;-6.106;2023-04-06T05:59:56;2.13;;;1.42;;
58697;SDS011;44475;53.206;-6.106;2023-04-06T06:02:27;2.42;;;1.50;;
58697;SDS011;44475;53.206;-6.106;2023-04-06T06:04:55;3.92;;;1.77;;
58697;SDS011;44475;53.206;-6.106;2023-04-06T06:07:23;2.60;;;1.45;;
58697;SDS011;44475;53.206;-6.106;2023-04-06T06:09:56;2.90;;;1.63;;
58697;SDS011;44475;53.206;-6.106;2023-04-06T06:12:28;2.67;;;1.50;;
58697;SDS011;44475;53.206;-6.106;2023-04-06T06:14:55;2.45;;;1.50;;
58697;SDS011;44475;53.206;-6.106;2023-04-06T06:17:23;2.35;;;1.48;;
58697;SDS011;44475;53.206;-6.106;2023-04-06T06:19:49;2.55;;;1.58;;
58697;SDS011;44475;53.206;-6.106;2023-04-06T06:22:16;2.53;;;1.50;;
58697;SDS011;44475;53.206;-6.106;2023-04-06T06:24:45;1.83;;;1.50;;
58697;SDS011;44475;53.206;-6.106;2023-04-06T06:27:12;2.38;;;1.50;;
58697;SDS011;44475;53.206;-6.106;2023-04-06T06:29:38;3.83;;;1.50;;
58697;SDS011;44475;53.206;-6.106;2023-04-06T06:32:05;3.35;;;1.60;;
58697;SDS011;44475;53.206;-6.106;2023-04-06T06:34:31;1.42;;;1.30;;
58697;SDS011;44475;53.206;-6.106;2023-04-06T06:37:01;2.05;;;1.40;;
58697;SDS011;44475;53.206;-6.106;2023-04-06T06:39:28;2.30;;;1.50;;
58697;SDS011;44475;53.206;-6.106;2023-04-06T06:41:54;2.78;;;1.45;;
58697;SDS011;44475;53.206;-6.106;2023-04-06T06:44:39;2.28;;;1.40;;
58697;SDS011;44475;53.206;-6.106;2023-04-06T06:47:05;1.88;;;1.40;;
58697;SDS011;44475;53.206;-6.106;2023-04-06T06:49:32;1.75;;;1.45;;
58697;SDS011;44475;53.206;-6.106;2023-04-06T06:51:58;1.40;;;1.30;;
58697;SDS011;44475;53.206;-6.106;2023-04-06T06:54:24;3.25;;;1.55;;
58697;SDS011;44475;53.206;-6.106;2023-04-06T06:56:50;2.70;;;1.60;;
58697;SDS011;44475;53.206;-6.106;2023-04-06T06:59:17;2.88;;;1.40;;
58697;SDS011;44475;53.206;-6.106;2023-04-06T07:01:43;2.20;;;1.40;;
58697;SDS011;44475;53.206;-6.106;2023-04-06T07:04:09;1.75;;;1.40;;
58697;SDS011;44475;53.206;-6.106;2023-04-06T07:06:36;3.28;;;1.67;;
58697;SDS011;44475;53.206;-6.106;2023-04-06T07:09:02;1.83;;;1.40;;
58697;SDS011;44475;53.206;-6.106;2023-04-06T07:11:29;2.33;;;1.58;;
58697;SDS011;44475;53.206;-6.106;2023-04-06T07:13:55;2.30;;;1.50;;
58697;SDS011;44475;53.206;-6.106;2023-04-06T07:16:22;2.45;;;1.42;;
58697;SDS011;44475;53.206;-6.106;2023-04-06T07:18:48;1.88;;;1.45;;
58697;SDS011;44475;53.206;-6.106;2023-04-06T07:21:15;3.05;;;1.60;;
58697;SDS011;44475;53.206;-6.106;2023-04-06T07:23:41;2.28;;;1.50;;
58697;SDS011;44475;53.206;-6.106;2023-04-06T07:26:07;2.30;;;1.50;;
58697;SDS011;44475;53.206;-6.106;2023-04-06T07:28:36;2.17;;;1.58;;
58697;SDS011;44475;53.206;-6.106;2023-04-06T07:31:02;2.28;;;1.42;;
58697;SDS011;44475;53.206;-6.106;2023-04-06T07:33:29;3.15;;;1.60;;
58697;SDS011;44475;53.206;-6.106;2023-04-06T07:35:56;1.88;;;1.50;;
58697;SDS011;44475;53.206;-6.106;2023-04-06T07:38:23;2.28;;;1.60;;
58697;SDS011;44475;53.206;-6.106;2023-04-06T07:40:50;1.98;;;1.52;;
58697;SDS011;44475;53.206;-6.106;2023-04-06T07:43:17;2.65;;;1.50;;
58697;SDS011;44475;53.206;-6.106;2023-04-06T07:45:43;2.58;;;1.60;;
58697;SDS011;44475;53.206;-6.106;2023-04-06T07:48:10;1.88;;;1.55;;
58697;SDS011;44475;53.206;-6.106;2023-04-06T07:50:36;2.20;;;1.50;;
58697;SDS011;44475;53.206;-6.106;2023-04-06T07:53:03;2.80;;;1.50;;
58697;SDS011;44475;53.206;-6.106;2023-04-06T07:55:30;2.05;;;1.50;;
58697;SDS011;44475;53.206;-6.106;2023-04-06T07:57:56;2.33;;;1.55;;
58697;SDS011;44475;53.206;-6.106;2023-04-06T08:00:22;2.25;;;1.60;;
58697;SDS011;44475;53.206;-6.106;2023-04-06T08:02:48;2.35;;;1.65;;
58697;SDS011;44475;53.206;-6.106;2023-04-06T08:05:15;2.55;;;1.60;;
58697;SDS011;44475;53.206;-6.106;2023-04-06T08:07:42;2.13;;;1.63;;
58697;SDS011;44475;53.206;-6.106;2023-04-06T08:10:09;1.98;;;1.60;;
58697;SDS011;44475;53.206;-6.106;2023-04-06T08:12:35;1.73;;;1.50;;
58697;SDS011;44475;53.206;-6.106;2023-04-06T08:15:02;2.22;;;1.73;;
58697;SDS011;44475;53.206;-6.106;2023-04-06T08:17:28;1.83;;;1.45;;
58697;SDS011;44475;53.206;-6.106;2023-04-06T08:19:56;3.08;;;1.60;;
58697;SDS011;44475;53.206;-6.106;2023-04-06T08:22:22;2.20;;;1.50;;
58697;SDS011;44475;53.206;-6.106;2023-04-06T08:24:48;1.90;;;1.50;;
58697;SDS011;44475;53.206;-6.106;2023-04-06T08:27:15;2.28;;;1.50;;
58697;SDS011;44475;53.206;-6.106;2023-04-06T08:29:41;2.40;;;1.50;;
58697;SDS011;44475;53.206;-6.106;2023-04-06T08:32:08;2.28;;;1.40;;
58697;SDS011;44475;53.206;-6.106;2023-04-06T08:34:34;2.38;;;1.65;;
58697;SDS011;44475;53.206;-6.106;2023-04-06T08:37:00;1.77;;;1.50;;
58697;SDS011;44475;53.206;-6.106;2023-04-06T08:39:27;1.88;;;1.45;;
58697;SDS011;44475;53.206;-6.106;2023-04-06T08:41:55;2.60;;;1.42;;
58697;SDS011;44475;53.206;-6.106;2023-04-06T08:44:23;2.72;;;1.60;;
58697;SDS011;44475;53.206;-6.106;2023-04-06T08:46:49;2.15;;;1.58;;
58697;SDS011;44475;53.206;-6.106;2023-04-06T08:49:16;1.90;;;1.50;;
58697;SDS011;44475;53.206;-6.106;2023-04-06T08:51:42;1.92;;;1.60;;
58697;SDS011;44475;53.206;-6.106;2023-04-06T08:54:09;2.08;;;1.48;;
58697;SDS011;44475;53.206;-6.106;2023-04-06T08:56:37;1.55;;;1.35;;
58697;SDS011;44475;53.206;-6.106;2023-04-06T08:59:04;1.95;;;1.40;;
58697;SDS011;44475;53.206;-6.106;2023-04-06T09:01:33;2.15;;;1.60;;
58697;SDS011;44475;53.206;-6.106;2023-04-06T09:04:03;1.40;;;1.30;;
58697;SDS011;44475;53.206;-6.106;2023-04-06T09:06:34;1.92;;;1.42;;
58697;SDS011;44475;53.206;-6.106;2023-04-06T09:09:02;2.30;;;1.20;;
58697;SDS011;44475;53.206;-6.106;2023-04-06T09:11:28;2.20;;;1.50;;
58697;SDS011;44475;53.206;-6.106;2023-04-06T09:14:05;2.15;;;1.50;;
58697;SDS011;44475;53.206;-6.106;2023-04-06T09:16:38;2.20;;;1.40;;
58697;SDS011;44475;53.206;-6.106;2023-04-06T09:19:08;1.77;;;1.30;;
58697;SDS011;44475;53.206;-6.106;2023-04-06T09:21:35;1.77;;;1.30;;
58697;SDS011;44475;53.206;-6.106;2023-04-06T09:24:03;2.13;;;1.30;;
58697;SDS011;44475;53.206;-6.106;2023-04-06T09:26:29;2.10;;;1.50;;
58697;SDS011;44475;53.206;-6.106;2023-04-06T09:28:58;1.40;;;1.30;;
58697;SDS011;44475;53.206;-6.106;2023-04-06T09:31:29;2.70;;;1.40;;
58697;SDS011;44475;53.206;-6.106;2023-04-06T09:33:59;1.77;;;1.35;;
58697;SDS011;44475;53.206;-6.106;2023-04-06T09:36:29;1.88;;;1.40;;
58697;SDS011;44475;53.206;-6.106;2023-04-06T09:39:01;1.58;;;1.25;;
58697;SDS011;44475;53.206;-6.106;2023-04-06T09:41:29;1.73;;;1.40;;
58697;SDS011;44475;53.206;-6.106;2023-04-06T09:46:30;1.98;;;1.50;;
58697;SDS011;44475;53.206;-6.106;2023-04-06T09:48:58;1.40;;;1.25;;
58697;SDS011;44475;53.206;-6.106;2023-04-06T09:51:36;1.75;;;1.30;;
58697;SDS011;44475;53.206;-6.106;2023-04-06T09:54:07;2.20;;;1.40;;
58697;SDS011;44475;53.206;-6.106;2023-04-06T09:56:39;1.40;;;1.30;;
58697;SDS011;44475;53.206;-6.106;2023-04-06T09:59:12;1.83;;;1.35;;
58697;SDS011;44475;53.206;-6.106;2023-04-06T10:01:44;2.25;;;1.30;;
58697;SDS011;44475;53.206;-6.106;2023-04-06T10:06:42;2.13;;;1.33;;
58697;SDS011;44475;53.206;-6.106;2023-04-06T10:09:13;2.20;;;1.30;;
58697;SDS011;44475;53.206;-6.106;2023-04-06T10:11:39;1.85;;;1.40;;
58697;SDS011;44475;53.206;-6.106;2023-04-06T10:14:06;1.58;;;1.30;;
58697;SDS011;44475;53.206;-6.106;2023-04-06T10:16:33;2.45;;;1.40;;
58697;SDS011;44475;53.206;-6.106;2023-04-06T10:19:04;2.22;;;1.40;;
58697;SDS011;44475;53.206;-6.106;2023-04-06T10:21:41;2.10;;;1.30;;
58697;SDS011;44475;53.206;-6.106;2023-04-06T10:24:12;2.40;;;1.40;;
58697;SDS011;44475;53.206;-6.106;2023-04-06T10:26:38;2.70;;;1.30;;
58697;SDS011;44475;53.206;-6.106;2023-04-06T10:29:05;1.60;;;1.40;;
58697;SDS011;44475;53.206;-6.106;2023-04-06T10:31:32;1.77;;;1.40;;
58697;SDS011;44475;53.206;-6.106;2023-04-06T10:34:04;1.85;;;1.33;;
58697;SDS011;44475;53.206;-6.106;2023-04-06T10:36:33;2.50;;;1.38;;
58697;SDS011;44475;53.206;-6.106;2023-04-06T10:39:01;1.30;;;1.20;;
58697;SDS011;44475;53.206;-6.106;2023-04-06T10:41:32;2.45;;;1.35;;
58697;SDS011;44475;53.206;-6.106;2023-04-06T10:43:59;2.35;;;1.40;;
58697;SDS011;44475;53.206;-6.106;2023-04-06T10:46:27;2.35;;;1.45;;
58697;SDS011;44475;53.206;-6.106;2023-04-06T10:48:54;2.22;;;1.30;;
58697;SDS011;44475;53.206;-6.106;2023-04-06T10:51:25;1.40;;;1.30;;
58697;SDS011;44475;53.206;-6.106;2023-04-06T10:53:53;1.42;;;1.20;;
58697;SDS011;44475;53.206;-6.106;2023-04-06T10:56:23;2.00;;;1.42;;
58697;SDS011;44475;53.206;-6.106;2023-04-06T10:58:53;1.88;;;1.35;;
58697;SDS011;44475;53.206;-6.106;2023-04-06T11:01:23;1.88;;;1.20;;
58697;SDS011;44475;53.206;-6.106;2023-04-06T11:03:53;2.25;;;1.50;;
58697;SDS011;44475;53.206;-6.106;2023-04-06T11:06:26;1.52;;;1.20;;
58697;SDS011;44475;53.206;-6.106;2023-04-06T11:08:54;1.83;;;1.30;;
58697;SDS011;44475;53.206;-6.106;2023-04-06T11:11:21;2.90;;;1.48;;
58697;SDS011;44475;53.206;-6.106;2023-04-06T11:13:51;2.22;;;1.55;;
58697;SDS011;44475;53.206;-6.106;2023-04-06T11:16:26;1.33;;;1.10;;
58697;SDS011;44475;53.206;-6.106;2023-04-06T11:18:55;2.03;;;1.42;;
58697;SDS011;44475;53.206;-6.106;2023-04-06T11:24:09;2.30;;;1.33;;
58697;SDS011;44475;53.206;-6.106;2023-04-06T11:26:43;2.35;;;1.38;;
58697;SDS011;44475;53.206;-6.106;2023-04-06T11:29:17;1.63;;;1.27;;
58697;SDS011;44475;53.206;-6.106;2023-04-06T11:31:45;1.80;;;1.30;;
58697;SDS011;44475;53.206;-6.106;2023-04-06T11:34:15;2.30;;;1.30;;
58697;SDS011;44475;53.206;-6.106;2023-04-06T11:36:43;1.42;;;1.10;;
58697;SDS011;44475;53.206;-6.106;2023-04-06T11:39:12;1.92;;;1.30;;
58697;SDS011;44475;53.206;-6.106;2023-04-06T11:41:47;2.58;;;1.30;;
58697;SDS011;44475;53.206;-6.106;2023-04-06T11:44:14;1.00;;;0.98;;
58697;SDS011;44475;53.206;-6.106;2023-04-06T11:46:40;1.70;;;1.23;;
58697;SDS011;44475;53.206;-6.106;2023-04-06T11:49:16;1.52;;;1.20;;
58697;SDS011;44475;53.206;-6.106;2023-04-06T11:51:42;2.20;;;1.30;;
58697;SDS011;44475;53.206;-6.106;2023-04-06T11:54:10;3.20;;;1.30;;
58697;SDS011;44475;53.206;-6.106;2023-04-06T11:56:38;2.85;;;1.30;;
58697;SDS011;44475;53.206;-6.106;2023-04-06T11:59:04;1.33;;;1.23;;
58697;SDS011;44475;53.206;-6.106;2023-04-06T12:01:30;1.48;;;1.13;;
58697;SDS011;44475;53.206;-6.106;2023-04-06T12:03:56;1.20;;;1.10;;
58697;SDS011;44475;53.206;-6.106;2023-04-06T12:06:23;1.58;;;1.10;;
58697;SDS011;44475;53.206;-6.106;2023-04-06T12:08:51;1.27;;;1.10;;
58697;SDS011;44475;53.206;-6.106;2023-04-06T12:11:17;1.58;;;1.10;;
58697;SDS011;44475;53.206;-6.106;2023-04-06T12:13:45;1.42;;;1.23;;
58697;SDS011;44475;53.206;-6.106;2023-04-06T12:16:11;1.88;;;1.27;;
58697;SDS011;44475;53.206;-6.106;2023-04-06T12:18:37;1.33;;;1.15;;
58697;SDS011;44475;53.206;-6.106;2023-04-06T12:21:03;1.75;;;1.20;;
58697;SDS011;44475;53.206;-6.106;2023-04-06T12:23:30;2.17;;;1.25;;
58697;SDS011;44475;53.206;-6.106;2023-04-06T12:25:56;1.95;;;1.10;;
58697;SDS011;44475;53.206;-6.106;2023-04-06T12:28:23;2.28;;;1.25;;
58697;SDS011;44475;53.206;-6.106;2023-04-06T12:30:51;1.90;;;1.13;;
58697;SDS011;44475;53.206;-6.106;2023-04-06T12:33:18;2.42;;;1.20;;
58697;SDS011;44475;53.206;-6.106;2023-04-06T12:35:45;1.20;;;1.05;;
58697;SDS011;44475;53.206;-6.106;2023-04-06T12:38:11;1.73;;;1.20;;
58697;SDS011;44475;53.206;-6.106;2023-04-06T12:40:38;1.08;;;1.05;;
58697;SDS011;44475;53.206;-6.106;2023-04-06T12:43:04;1.08;;;0.90;;
58697;SDS011;44475;53.206;-6.106;2023-04-06T12:45:31;1.48;;;1.10;;
58697;SDS011;44475;53.206;-6.106;2023-04-06T12:47:58;1.65;;;1.10;;
58697;SDS011;44475;53.206;-6.106;2023-04-06T12:50:24;2.05;;;1.30;;
58697;SDS011;44475;53.206;-6.106;2023-04-06T12:52:51;2.00;;;1.20;;
58697;SDS011;44475;53.206;-6.106;2023-04-06T12:55:17;1.40;;;1.13;;
58697;SDS011;44475;53.206;-6.106;2023-04-06T12:57:44;1.42;;;1.30;;
58697;SDS011;44475;53.206;-6.106;2023-04-06T13:00:11;1.20;;;1.10;;
58697;SDS011;44475;53.206;-6.106;2023-04-06T13:02:39;1.45;;;1.20;;
58697;SDS011;44475;53.206;-6.106;2023-04-06T13:05:05;1.33;;;1.20;;
58697;SDS011;44475;53.206;-6.106;2023-04-06T13:07:31;1.30;;;1.10;;
58697;SDS011;44475;53.206;-6.106;2023-04-06T13:09:58;1.75;;;1.10;;
58697;SDS011;44475;53.206;-6.106;2023-04-06T13:12:24;1.40;;;1.17;;
58697;SDS011;44475;53.206;-6.106;2023-04-06T13:14:51;1.20;;;1.02;;
58697;SDS011;44475;53.206;-6.106;2023-04-06T13:17:17;1.85;;;1.10;;
58697;SDS011;44475;53.206;-6.106;2023-04-06T13:19:43;1.73;;;1.20;;
58697;SDS011;44475;53.206;-6.106;2023-04-06T13:22:10;1.13;;;0.98;;
58697;SDS011;44475;53.206;-6.106;2023-04-06T13:24:36;2.35;;;1.23;;
58697;SDS011;44475;53.206;-6.106;2023-04-06T13:27:02;1.33;;;1.20;;
58697;SDS011;44475;53.206;-6.106;2023-04-06T13:29:28;1.88;;;1.30;;
58697;SDS011;44475;53.206;-6.106;2023-04-06T13:31:55;1.38;;;1.10;;
58697;SDS011;44475;53.206;-6.106;2023-04-06T13:34:21;1.30;;;1.20;;
58697;SDS011;44475;53.206;-6.106;2023-04-06T13:36:47;1.52;;;1.10;;
58697;SDS011;44475;53.206;-6.106;2023-04-06T13:39:13;1.30;;;1.13;;
58697;SDS011;44475;53.206;-6.106;2023-04-06T13:41:40;1.20;;;1.10;;
58697;SDS011;44475;53.206;-6.106;2023-04-06T13:44:06;2.28;;;1.38;;
58697;SDS011;44475;53.206;-6.106;2023-04-06T13:46:32;1.48;;;1.10;;
58697;SDS011;44475;53.206;-6.106;2023-04-06T13:48:59;1.17;;;1.08;;
58697;SDS011;44475;53.206;-6.106;2023-04-06T13:51:25;1.80;;;1.20;;
58697;SDS011;44475;53.206;-6.106;2023-04-06T13:53:52;1.23;;;0.93;;
58697;SDS011;44475;53.206;-6.106;2023-04-06T13:56:18;1.48;;;1.10;;
58697;SDS011;44475;53.206;-6.106;2023-04-06T13:58:45;1.33;;;1.20;;
58697;SDS011;44475;53.206;-6.106;2023-04-06T14:01:11;2.22;;;1.30;;
58697;SDS011;44475;53.206;-6.106;2023-04-06T14:03:37;1.65;;;1.20;;
58697;SDS011;44475;53.206;-6.106;2023-04-06T14:06:12;1.10;;;1.00;;
58697;SDS011;44475;53.206;-6.106;2023-04-06T14:08:39;2.35;;;1.02;;
58697;SDS011;44475;53.206;-6.106;2023-04-06T14:11:06;1.00;;;1.00;;
58697;SDS011;44475;53.206;-6.106;2023-04-06T14:13:39;2.47;;;1.08;;
58697;SDS011;44475;53.206;-6.106;2023-04-06T14:16:06;2.28;;;1.20;;
58697;SDS011;44475;53.206;-6.106;2023-04-06T14:18:33;1.55;;;1.20;;
58697;SDS011;44475;53.206;-6.106;2023-04-06T14:21:01;1.20;;;1.10;;
58697;SDS011;44475;53.206;-6.106;2023-04-06T14:23:27;1.75;;;1.10;;
58697;SDS011;44475;53.206;-6.106;2023-04-06T14:26:03;1.45;;;1.20;;
58697;SDS011;44475;53.206;-6.106;2023-04-06T14:28:32;2.60;;;1.10;;
58697;SDS011;44475;53.206;-6.106;2023-04-06T14:30:59;1.23;;;0.90;;
58697;SDS011;44475;53.206;-6.106;2023-04-06T14:33:26;1.38;;;1.10;;
58697;SDS011;44475;53.206;-6.106;2023-04-06T14:35:52;1.55;;;1.10;;
58697;SDS011;44475;53.206;-6.106;2023-04-06T14:38:19;1.20;;;1.00;;
58697;SDS011;44475;53.206;-6.106;2023-04-06T14:40:45;1.77;;;1.10;;
58697;SDS011;44475;53.206;-6.106;2023-04-06T14:43:11;1.60;;;1.10;;
58697;SDS011;44475;53.206;-6.106;2023-04-06T14:45:38;1.88;;;1.00;;
58697;SDS011;44475;53.206;-6.106;2023-04-06T14:48:04;1.55;;;1.00;;